Time;durP1;ratioP1;P1;durP2;ratioP2;P2;SDS_P1;SDS_P2;PMS_P1;PMS_P2;Temp;Humidity;BMP_temperature;BMP_pressure;BME280_temperature;BME280_humidity;BME280_pressure;Samples;Min_cycle;Max_cycle;Signal;HPM_P1;HPM_P2
2023/08/19 00:01:28;;;;;;;32.50;28.48;;;21.50;99.90;;;;;;4996233;28;20050;-90
2023/08/19 00:03:54;;;;;;;34.50;28.88;;;21.50;99.90;;;;;;4990496;28;20073;-90
2023/08/19 00:06:40;;;;;;;32.40;28.40;;;21.60;99.90;;;;;;4986333;28;20080;-90
2023/08/19 00:09:08;;;;;;;33.53;29.92;;;21.50;99.90;;;;;;4994109;28;20107;-91
2023/08/19 00:11:35;;;;;;;34.40;28.83;;;21.50;99.90;;;;;;4996487;28;20038;-87
2023/08/19 00:14:03;;;;;;;35.83;28.80;;;21.50;99.90;;;;;;4996450;28;20030;-91
2023/08/19 00:16:29;;;;;;;30.33;27.02;;;21.40;99.90;;;;;;4987696;28;20030;-90
2023/08/19 00:18:55;;;;;;;32.75;27.67;;;21.50;99.90;;;;;;4998648;28;20027;-90
2023/08/19 00:21:21;;;;;;;34.85;29.85;;;21.40;99.90;;;;;;4986557;28;20026;-89
2023/08/19 00:23:46;;;;;;;32.63;29.08;;;21.40;99.90;;;;;;4996219;28;20478;-90
2023/08/19 00:26:12;;;;;;;29.98;26.70;;;21.30;99.90;;;;;;4996275;28;20025;-91
2023/08/19 00:28:41;;;;;;;29.85;26.67;;;21.30;99.90;;;;;;4985672;28;20475;-90
2023/08/19 00:31:07;;;;;;;28.48;25.48;;;21.20;99.90;;;;;;4993724;28;20633;-91
2023/08/19 00:33:34;;;;;;;29.17;25.92;;;21.20;99.90;;;;;;4992501;28;20117;-91
2023/08/19 00:35:59;;;;;;;31.63;26.92;;;21.10;99.90;;;;;;4984911;28;20053;-90
2023/08/19 00:38:25;;;;;;;31.05;26.88;;;21.10;99.90;;;;;;4993910;28;20443;-90
2023/08/19 00:40:50;;;;;;;35.78;30.70;;;21.00;99.90;;;;;;4988782;28;20113;-90
2023/08/19 00:43:16;;;;;;;35.53;30.35;;;21.10;99.90;;;;;;4987296;28;20031;-91
2023/08/19 00:45:47;;;;;;;31.27;27.27;;;21.00;99.90;;;;;;4994920;28;20703;-91
2023/08/19 00:48:14;;;;;;;28.10;25.10;;;21.10;99.90;;;;;;4980389;28;20034;-90
2023/08/19 00:50:40;;;;;;;28.40;25.20;;;21.10;99.90;;;;;;4994846;28;20475;-90
2023/08/19 00:53:06;;;;;;;27.08;24.17;;;21.00;99.90;;;;;;4996027;28;20037;-91
2023/08/19 00:55:33;;;;;;;25.75;23.08;;;21.00;99.90;;;;;;4996208;28;20065;-90
2023/08/19 00:58:03;;;;;;;28.20;25.02;;;21.10;99.90;;;;;;4995243;28;20117;-91
2023/08/19 01:00:33;;;;;;;27.30;24.08;;;21.10;99.90;;;;;;4986562;28;20077;-90
2023/08/19 01:02:59;;;;;;;24.48;21.90;;;21.20;99.90;;;;;;4983827;28;20026;-90
2023/08/19 01:05:39;;;;;;;24.70;21.92;;;21.20;99.90;;;;;;4986423;28;20028;-91
2023/08/19 01:08:09;;;;;;;24.90;22.23;;;21.30;99.90;;;;;;4984335;28;20027;-90
2023/08/19 01:10:44;;;;;;;26.13;21.55;;;21.30;99.90;;;;;;5000231;28;20033;-91
2023/08/19 01:13:13;;;;;;;23.38;20.85;;;21.40;99.90;;;;;;4995537;28;20482;-90
2023/08/19 01:15:45;;;;;;;26.17;22.60;;;21.50;99.90;;;;;;4995126;28;20022;-90
2023/08/19 01:18:11;;;;;;;;;;;21.50;99.90;;;;;;5013116;28;20022;-90
2023/08/19 01:20:39;;;;;;;23.67;20.33;;;21.50;99.90;;;;;;4980392;28;19909;-90
2023/08/19 01:23:17;;;;;;;24.55;21.25;;;21.50;99.90;;;;;;4996235;28;20061;-91
2023/08/19 01:25:43;;;;;;;26.02;22.40;;;21.50;99.90;;;;;;4979465;28;20031;-90
2023/08/19 01:28:09;;;;;;;24.92;21.10;;;21.50;99.90;;;;;;4983442;28;20052;-90
2023/08/19 01:30:34;;;;;;;23.75;21.27;;;21.60;99.90;;;;;;4994280;28;20553;-91
2023/08/19 01:33:02;;;;;;;24.88;21.95;;;21.60;99.90;;;;;;4984815;28;20076;-91
2023/08/19 01:35:31;;;;;;;24.90;20.88;;;21.60;99.90;;;;;;4995572;28;20018;-90
2023/08/19 01:38:06;;;;;;;28.65;23.38;;;21.60;99.90;;;;;;4981233;28;20036;-91
2023/08/19 01:40:32;;;;;;;25.83;22.00;;;21.60;99.90;;;;;;4997727;28;20021;-90
2023/08/19 01:42:59;;;;;;;26.23;20.73;;;21.60;99.90;;;;;;4994725;28;20026;-90
2023/08/19 01:45:25;;;;;;;25.85;22.33;;;21.60;99.90;;;;;;4995115;28;20022;-91
2023/08/19 01:47:54;;;;;;;26.80;22.73;;;21.60;99.90;;;;;;4980307;28;20125;-91
2023/08/19 01:50:20;;;;;;;23.77;21.17;;;21.60;99.90;;;;;;4992674;28;20462;-91
2023/08/19 01:52:46;;;;;;;22.02;19.77;;;21.70;99.90;;;;;;4994295;28;20041;-91
2023/08/19 01:55:11;;;;;;;25.10;21.88;;;21.70;99.90;;;;;;4983425;28;20057;-90
2023/08/19 01:57:37;;;;;;;25.55;20.05;;;21.70;99.90;;;;;;5002241;28;20112;-91
2023/08/19 02:00:07;;;;;;;23.95;20.35;;;21.70;99.90;;;;;;4992176;28;20022;-91
2023/08/19 02:02:32;;;;;;;23.08;19.83;;;21.70;99.90;;;;;;4991473;28;20025;-91
2023/08/19 02:04:58;;;;;;;22.58;20.02;;;21.70;99.90;;;;;;5002769;28;20085;-90
2023/08/19 02:07:24;;;;;;;23.42;19.75;;;21.80;99.90;;;;;;4993604;28;20364;-91
2023/08/19 02:09:49;;;;;;;20.50;18.35;;;21.80;99.90;;;;;;4995140;28;20030;-91
2023/08/19 02:12:15;;;;;;;21.27;19.15;;;21.80;99.90;;;;;;4988689;28;20030;-91
2023/08/19 02:14:40;;;;;;;20.83;18.35;;;21.90;99.90;;;;;;4994080;28;20030;-90
2023/08/19 02:17:06;;;;;;;22.92;20.17;;;22.00;99.90;;;;;;4994967;28;20030;-91
2023/08/19 02:19:31;;;;;;;23.65;18.80;;;22.00;99.90;;;;;;4998840;28;20502;-89
2023/08/19 02:21:57;;;;;;;21.45;19.15;;;22.00;99.90;;;;;;4997750;28;20030;-90
2023/08/19 02:24:23;;;;;;;21.60;18.60;;;22.00;99.90;;;;;;4999365;28;20022;-90
2023/08/19 02:26:48;;;;;;;24.35;18.40;;;22.10;99.90;;;;;;4998532;28;20036;-91
2023/08/19 02:29:14;;;;;;;19.92;17.67;;;22.20;99.90;;;;;;4998082;28;20029;-91
2023/08/19 02:31:39;;;;;;;20.92;17.83;;;22.20;99.90;;;;;;4989505;28;20046;-91
2023/08/19 02:34:05;;;;;;;20.52;17.05;;;22.20;99.90;;;;;;4993489;28;20037;-92
2023/08/19 02:36:31;;;;;;;21.55;18.50;;;22.30;99.90;;;;;;4996712;28;20022;-91
2023/08/19 02:38:57;;;;;;;19.65;17.60;;;22.30;99.90;;;;;;4998516;28;20022;-91
2023/08/19 02:41:23;;;;;;;19.83;16.98;;;22.40;99.90;;;;;;4996257;28;20371;-90
2023/08/19 02:43:49;;;;;;;19.77;16.15;;;22.40;99.90;;;;;;4995572;28;20497;-91
2023/08/19 02:46:15;;;;;;;19.10;16.35;;;22.40;99.90;;;;;;4998225;28;20033;-91
2023/08/19 02:48:41;;;;;;;19.00;17.00;;;22.40;99.90;;;;;;4998724;28;20030;-91
2023/08/19 02:51:06;;;;;;;20.05;17.17;;;22.40;99.90;;;;;;4993619;28;20034;-91
2023/08/19 02:53:32;;;;;;;23.80;18.27;;;22.50;99.90;;;;;;4997201;28;20097;-90
2023/08/19 02:55:58;;;;;;;21.42;16.70;;;22.50;99.90;;;;;;5002416;28;20524;-91
2023/08/19 02:58:25;;;;;;;21.30;16.63;;;22.50;99.90;;;;;;4998506;28;20026;-90
2023/08/19 03:00:50;;;;;;;18.35;16.35;;;22.50;99.90;;;;;;4997513;28;20030;-91
2023/08/19 03:03:17;;;;;;;18.02;16.13;;;22.50;99.90;;;;;;4993800;28;20033;-91
2023/08/19 03:05:42;;;;;;;18.48;16.58;;;22.50;99.90;;;;;;4994623;28;20041;-90
2023/08/19 03:08:10;;;;;;;18.23;16.30;;;22.50;99.90;;;;;;5003228;28;20018;-90
2023/08/19 03:10:36;;;;;;;20.63;14.95;;;22.60;99.90;;;;;;4998493;28;20041;-90
2023/08/19 03:13:03;;;;;;;22.75;16.70;;;22.60;99.90;;;;;;4996757;28;20109;-90
2023/08/19 03:15:29;;;;;;;17.75;15.93;;;22.60;99.90;;;;;;4981251;28;20019;-91
2023/08/19 03:17:54;;;;;;;19.92;16.20;;;22.60;99.90;;;;;;5011195;28;20041;-91
2023/08/19 03:20:20;;;;;;;16.23;14.40;;;22.60;99.90;;;;;;4993177;28;20014;-90
2023/08/19 03:22:45;;;;;;;17.92;15.70;;;22.60;99.90;;;;;;4984651;28;20023;-91
2023/08/19 03:25:11;;;;;;;19.05;16.02;;;22.60;99.90;;;;;;4988964;28;20026;-90
2023/08/19 03:27:37;;;;;;;19.77;15.40;;;22.60;99.90;;;;;;4997858;28;20022;-91
2023/08/19 03:30:04;;;;;;;18.10;16.02;;;22.70;99.90;;;;;;4995846;28;20034;-90
2023/08/19 03:32:33;;;;;;;16.60;14.85;;;22.60;99.90;;;;;;4997434;28;20034;-90
2023/08/19 03:34:58;;;;;;;21.23;15.00;;;22.70;99.90;;;;;;4991225;28;20053;-90
2023/08/19 03:37:24;;;;;;;16.00;13.70;;;22.70;99.90;;;;;;4999736;28;20421;-90
2023/08/19 03:39:50;;;;;;;18.33;14.23;;;22.70;99.90;;;;;;5009766;28;20034;-91
2023/08/19 03:42:17;;;;;;;19.40;15.57;;;22.70;99.90;;;;;;5009311;28;20025;-90
2023/08/19 03:44:42;;;;;;;17.65;14.98;;;22.70;99.90;;;;;;4996204;28;20029;-91
2023/08/19 03:47:10;;;;;;;19.88;15.63;;;22.70;99.90;;;;;;4995700;28;20030;-91
2023/08/19 03:49:36;;;;;;;19.40;15.98;;;22.70;99.90;;;;;;4995279;28;20070;-91
2023/08/19 03:52:02;;;;;;;17.00;15.20;;;22.70;99.90;;;;;;4995149;28;20092;-91
2023/08/19 03:54:27;;;;;;;17.85;14.13;;;22.70;99.90;;;;;;4995018;28;20132;-91
2023/08/19 03:56:53;;;;;;;18.25;14.25;;;22.70;99.90;;;;;;4995541;28;20041;-90
2023/08/19 03:59:18;;;;;;;18.48;15.65;;;22.60;99.90;;;;;;4995643;28;20034;-90
2023/08/19 04:01:44;;;;;;;17.27;13.88;;;22.70;99.90;;;;;;4994198;28;20041;-90
2023/08/19 04:04:10;;;;;;;17.70;14.60;;;22.70;99.90;;;;;;4997611;28;20033;-91
2023/08/19 04:06:35;;;;;;;18.48;14.38;;;22.70;99.90;;;;;;4994225;28;20030;-90
2023/08/19 04:09:01;;;;;;;18.38;14.52;;;22.70;99.90;;;;;;4995474;28;20141;-90
2023/08/19 04:11:27;;;;;;;15.90;14.20;;;22.70;99.90;;;;;;4994825;28;20042;-90
2023/08/19 04:13:52;;;;;;;17.35;13.10;;;22.70;99.90;;;;;;4995715;28;20037;-90
2023/08/19 04:16:19;;;;;;;16.63;13.60;;;22.70;99.90;;;;;;4995905;28;20033;-91
2023/08/19 04:18:44;;;;;;;17.17;12.38;;;22.60;99.90;;;;;;4994565;28;20036;-89
2023/08/19 04:21:10;;;;;;;17.33;13.13;;;22.70;99.90;;;;;;4995313;28;20398;-91
2023/08/19 04:23:36;;;;;;;18.17;12.48;;;22.70;99.90;;;;;;4995848;28;20032;-89
2023/08/19 04:26:02;;;;;;;14.38;12.85;;;22.70;99.90;;;;;;4994864;28;20390;-90
2023/08/19 04:28:28;;;;;;;14.82;13.20;;;22.70;99.90;;;;;;4995002;28;20021;-90
2023/08/19 04:31:04;;;;;;;12.95;11.50;;;22.70;99.90;;;;;;4994730;28;20462;-90
2023/08/19 04:33:31;;;;;;;17.02;12.65;;;22.70;99.90;;;;;;4993908;28;20022;-91
2023/08/19 04:35:57;;;;;;;18.35;12.98;;;22.70;99.90;;;;;;4994823;28;20025;-90
2023/08/19 04:38:22;;;;;;;14.90;12.35;;;22.70;99.90;;;;;;4992842;28;20026;-90
2023/08/19 04:40:50;;;;;;;14.60;11.55;;;22.70;99.90;;;;;;4997185;28;20494;-91
2023/08/19 04:43:16;;;;;;;16.20;12.55;;;22.70;99.90;;;;;;4990572;28;20487;-90
2023/08/19 04:45:42;;;;;;;16.40;12.02;;;22.70;99.90;;;;;;4993736;28;20062;-90
2023/08/19 04:48:08;;;;;;;14.82;11.60;;;22.80;99.90;;;;;;4995089;28;20061;-90
2023/08/19 04:50:33;;;;;;;16.35;11.90;;;22.80;99.90;;;;;;4991975;28;20061;-91
2023/08/19 04:52:59;;;;;;;16.00;11.27;;;22.80;99.90;;;;;;5009658;28;20083;-90
2023/08/19 04:55:26;;;;;;;17.38;12.30;;;22.70;99.90;;;;;;4993499;28;20042;-91
2023/08/19 04:57:51;;;;;;;12.25;10.95;;;22.70;99.90;;;;;;4995580;28;20030;-90
2023/08/19 05:00:17;;;;;;;15.75;11.75;;;22.80;99.90;;;;;;4993816;28;20034;-90
2023/08/19 05:02:43;;;;;;;15.48;10.63;;;22.80;99.90;;;;;;4993567;28;20026;-91
2023/08/19 05:05:08;;;;;;;13.20;11.40;;;22.70;99.90;;;;;;4995400;28;20034;-90
2023/08/19 05:07:34;;;;;;;12.38;10.48;;;22.80;99.90;;;;;;4994946;28;20026;-91
2023/08/19 05:09:59;;;;;;;13.40;11.13;;;22.80;99.90;;;;;;4990898;28;20087;-91
2023/08/19 05:12:25;;;;;;;11.57;10.43;;;22.80;99.90;;;;;;5001152;28;20041;-91
2023/08/19 05:14:51;;;;;;;13.48;10.63;;;22.80;99.90;;;;;;4989963;28;20017;-91
2023/08/19 05:17:18;;;;;;;13.45;10.68;;;22.80;99.90;;;;;;4993541;28;20040;-91
2023/08/19 05:19:43;;;;;;;13.90;10.55;;;22.80;99.90;;;;;;4997899;28;20033;-91
2023/08/19 05:22:09;;;;;;;14.07;10.98;;;22.80;99.90;;;;;;4993879;28;20033;-91
2023/08/19 05:24:35;;;;;;;12.35;9.80;;;22.80;99.90;;;;;;5006082;28;20017;-91
2023/08/19 05:27:00;;;;;;;12.85;10.55;;;22.80;99.90;;;;;;4996327;28;20022;-92
2023/08/19 05:29:26;;;;;;;10.65;9.50;;;22.80;99.90;;;;;;5000407;28;20029;-91
2023/08/19 05:31:51;;;;;;;20.05;10.65;;;22.80;99.90;;;;;;4996253;28;20081;-91
2023/08/19 05:34:17;;;;;;;15.20;10.73;;;22.80;99.90;;;;;;4997890;28;20026;-91
2023/08/19 05:36:43;;;;;;;12.57;9.88;;;22.80;99.90;;;;;;4994485;28;20033;-91
2023/08/19 05:39:08;;;;;;;13.15;10.10;;;22.80;99.90;;;;;;4994750;28;20034;-90
2023/08/19 05:41:34;;;;;;;13.35;10.27;;;22.80;99.90;;;;;;4993154;28;20112;-91
2023/08/19 05:43:59;;;;;;;11.40;9.35;;;22.80;99.90;;;;;;4995770;28;20061;-90
2023/08/19 05:46:25;;;;;;;13.88;9.45;;;22.80;99.90;;;;;;4995622;28;20026;-90
2023/08/19 05:48:50;;;;;;;10.70;9.13;;;22.80;99.90;;;;;;4995977;28;20022;-90
2023/08/19 05:51:16;;;;;;;14.57;9.77;;;22.80;99.90;;;;;;4994647;28;20445;-91
2023/08/19 05:53:42;;;;;;;13.05;9.45;;;22.90;99.90;;;;;;4997178;28;20033;-91
2023/08/19 05:56:08;;;;;;;14.20;10.18;;;22.80;99.90;;;;;;4993719;28;20057;-91
2023/08/19 05:58:33;;;;;;;16.33;9.93;;;22.90;99.90;;;;;;4997533;28;20083;-91
2023/08/19 06:01:00;;;;;;;16.02;9.73;;;22.90;99.90;;;;;;4996218;28;20117;-91
2023/08/19 06:03:26;;;;;;;13.98;9.07;;;22.90;99.90;;;;;;4999547;28;20084;-91
2023/08/19 06:05:51;;;;;;;14.10;9.40;;;22.90;99.90;;;;;;4995274;28;20022;-91
2023/08/19 06:08:17;;;;;;;14.18;9.02;;;23.00;99.90;;;;;;4997558;28;20036;-90
2023/08/19 06:10:46;;;;;;;14.68;10.00;;;23.00;99.90;;;;;;4992756;28;20044;-90
2023/08/19 06:13:12;;;;;;;12.77;9.90;;;23.10;99.90;;;;;;4987962;28;20053;-91
2023/08/19 06:15:38;;;;;;;12.23;9.65;;;23.10;99.90;;;;;;5010502;28;20482;-91
2023/08/19 06:18:04;;;;;;;12.82;9.68;;;23.10;99.90;;;;;;4980335;28;20211;-90
2023/08/19 06:20:29;;;;;;;12.02;9.15;;;23.20;99.90;;;;;;4996716;28;20109;-91
2023/08/19 06:22:55;;;;;;;13.98;9.75;;;23.20;99.90;;;;;;4998530;28;20068;-92
2023/08/19 06:25:21;;;;;;;10.70;9.60;;;23.30;99.90;;;;;;4999981;28;20084;-91
2023/08/19 06:27:46;;;;;;;13.27;9.15;;;23.30;99.90;;;;;;4997146;28;20540;-91
2023/08/19 06:30:13;;;;;;;12.63;9.48;;;23.40;99.90;;;;;;4997864;28;20119;-91
2023/08/19 06:32:39;;;;;;;12.63;8.65;;;23.50;99.90;;;;;;4998323;28;20042;-91
2023/08/19 06:35:05;;;;;;;10.00;8.30;;;23.50;99.90;;;;;;5016631;28;20504;-92
2023/08/19 06:37:39;;;;;;;12.25;8.35;;;23.60;99.90;;;;;;4990974;28;20034;-92
2023/08/19 06:40:07;;;;;;;9.98;8.90;;;23.60;99.90;;;;;;4997823;28;20037;-92
2023/08/19 06:42:35;;;;;;;11.15;8.25;;;23.60;99.90;;;;;;4998695;28;20172;-91
2023/08/19 06:45:02;;;;;;;10.40;8.20;;;23.70;99.90;;;;;;4995947;28;20022;-91
2023/08/19 06:47:31;;;;;;;10.98;8.60;;;23.80;99.90;;;;;;4998031;28;20026;-90
2023/08/19 06:49:56;;;;;;;13.73;8.85;;;23.90;99.90;;;;;;4998065;28;20038;-91
2023/08/19 06:52:22;;;;;;;12.95;8.95;;;24.00;99.90;;;;;;4997784;28;20045;-91
2023/08/19 06:54:48;;;;;;;14.85;9.32;;;24.00;99.90;;;;;;4996852;28;20051;-92
2023/08/19 06:57:27;;;;;;;12.77;8.60;;;24.10;99.90;;;;;;4997309;28;20048;-92
2023/08/19 07:00:00;;;;;;;12.68;9.75;;;24.10;99.90;;;;;;4997816;28;20025;-91
2023/08/19 07:02:28;;;;;;;12.10;9.48;;;24.10;99.90;;;;;;4984163;28;20045;-91
2023/08/19 07:04:59;;;;;;;13.05;9.40;;;24.10;99.90;;;;;;5007792;28;20089;-96
2023/08/19 07:07:25;;;;;;;12.13;8.85;;;24.20;99.90;;;;;;5002065;28;20045;-91
2023/08/19 07:09:52;;;;;;;12.90;9.60;;;24.30;99.90;;;;;;4997748;28;20026;-91
2023/08/19 07:12:18;;;;;;;15.00;9.52;;;24.40;99.90;;;;;;4994496;28;20038;-91
2023/08/19 07:14:44;;;;;;;13.38;9.57;;;24.40;99.90;;;;;;4991176;28;20030;-92
2023/08/19 07:17:11;;;;;;;12.95;9.82;;;24.50;99.90;;;;;;4983126;28;20032;-91
2023/08/19 07:19:39;;;;;;;10.90;9.13;;;24.60;99.90;;;;;;4997985;28;20113;-92
2023/08/19 07:22:06;;;;;;;12.23;9.65;;;24.60;99.90;;;;;;4996366;28;20064;-92
2023/08/19 07:24:32;;;;;;;13.88;10.30;;;24.70;99.90;;;;;;4986388;28;20018;-92
2023/08/19 07:27:01;;;;;;;14.52;9.93;;;24.70;99.90;;;;;;4996872;28;20371;-92
2023/08/19 07:29:27;;;;;;;10.90;9.13;;;24.80;99.90;;;;;;4992683;28;20022;-92
2023/08/19 07:31:53;;;;;;;10.30;8.65;;;24.90;99.90;;;;;;4995014;28;20037;-92
2023/08/19 07:34:19;;;;;;;10.60;9.02;;;25.00;99.90;;;;;;4990793;28;20022;-92
2023/08/19 07:36:44;;;;;;;14.73;11.00;;;25.10;99.90;;;;;;4996696;28;20053;-92
2023/08/19 07:39:10;;;;;;;18.60;10.60;;;25.20;99.90;;;;;;4984912;28;20109;-92
2023/08/19 07:41:36;;;;;;;11.75;9.95;;;25.40;99.90;;;;;;4990448;28;20168;-92
2023/08/19 07:44:02;;;;;;;11.88;9.90;;;25.40;99.90;;;;;;4989818;28;20049;-92
2023/08/19 07:46:28;;;;;;;13.15;9.70;;;25.70;99.90;;;;;;4978986;28;20372;-92
2023/08/19 07:48:54;;;;;;;13.43;10.13;;;25.90;99.90;;;;;;4995013;28;20137;-92
2023/08/19 07:51:20;;;;;;;13.48;10.18;;;26.00;99.90;;;;;;4997491;28;20141;-92
2023/08/19 07:53:45;;;;;;;12.10;10.00;;;26.10;99.90;;;;;;4997081;28;20076;-92
2023/08/19 07:56:11;;;;;;;11.80;10.45;;;26.10;99.90;;;;;;4996548;28;20034;-91
2023/08/19 07:58:36;;;;;;;15.45;11.50;;;26.20;99.90;;;;;;4993512;28;20032;-92
2023/08/19 08:01:02;;;;;;;13.50;10.18;;;26.30;99.90;;;;;;4993443;28;20038;-92
2023/08/19 08:03:28;;;;;;;11.90;10.35;;;26.40;99.90;;;;;;4983365;28;20051;-92
2023/08/19 08:05:53;;;;;;;13.18;11.60;;;26.60;99.90;;;;;;5011592;28;20098;-93
2023/08/19 08:08:19;;;;;;;15.40;11.15;;;26.80;99.90;;;;;;4994477;28;20495;-92
2023/08/19 08:10:45;;;;;;;14.80;10.00;;;26.90;99.90;;;;;;4984391;28;20487;-92
2023/08/19 08:13:10;;;;;;;10.00;8.98;;;27.00;99.90;;;;;;4984704;28;20030;-92
2023/08/19 08:15:36;;;;;;;10.82;9.00;;;27.10;99.90;;;;;;4989276;28;20497;-90
2023/08/19 08:18:01;;;;;;;10.52;8.65;;;27.10;99.90;;;;;;4996554;28;20560;-90
2023/08/19 08:20:27;;;;;;;7.57;6.80;;;27.20;99.90;;;;;;4996120;28;20390;-90
2023/08/19 08:22:52;;;;;;;8.35;5.80;;;27.40;99.90;;;;;;4992074;28;20054;-90
2023/08/19 08:25:18;;;;;;;12.65;6.50;;;27.50;99.90;;;;;;4991530;28;20108;-89
2023/08/19 08:27:45;;;;;;;9.65;6.10;;;27.70;99.90;;;;;;4989355;28;20495;-91
2023/08/19 08:30:11;;;;;;;7.97;6.20;;;27.90;99.90;;;;;;4994709;28;20032;-90
2023/08/19 08:32:37;;;;;;;13.27;6.40;;;27.90;99.90;;;;;;5002910;28;20040;-92
2023/08/19 08:35:03;;;;;;;11.05;6.32;;;28.00;99.90;;;;;;4992311;28;20022;-93
2023/08/19 08:37:29;;;;;;;7.22;5.57;;;28.00;99.90;;;;;;4991525;28;20886;-92
2023/08/19 08:39:54;;;;;;;7.20;5.25;;;28.00;99.90;;;;;;4987254;28;20036;-92
2023/08/19 08:42:21;;;;;;;7.57;5.72;;;28.00;99.90;;;;;;4988959;28;20559;-94
2023/08/19 08:44:50;;;;;;;10.02;7.20;;;27.90;99.90;;;;;;4987588;28;20018;-90
2023/08/19 08:47:16;;;;;;;7.07;5.82;;;27.90;99.90;;;;;;4994255;28;20083;-91
2023/08/19 08:49:46;;;;;;;14.43;8.07;;;27.80;99.90;;;;;;4995726;28;20036;-90
2023/08/19 08:52:11;;;;;;;10.27;8.02;;;27.70;99.90;;;;;;4995623;28;20034;-91
2023/08/19 08:54:39;;;;;;;10.73;8.30;;;27.50;99.90;;;;;;4986372;28;20054;-90
2023/08/19 08:57:04;;;;;;;10.43;7.82;;;27.50;99.90;;;;;;4986037;28;20030;-90
2023/08/19 08:59:30;;;;;;;8.93;7.70;;;27.40;99.90;;;;;;4994348;28;20536;-91
2023/08/19 09:01:58;;;;;;;11.02;8.25;;;27.40;99.90;;;;;;4988201;28;20039;-92
2023/08/19 09:04:25;;;;;;;8.93;8.13;;;27.40;99.90;;;;;;4991363;28;20022;-91
2023/08/19 09:07:06;;;;;;;9.43;7.35;;;27.40;99.90;;;;;;4998667;28;20107;-90
2023/08/19 09:09:36;;;;;;;10.80;8.27;;;27.40;99.90;;;;;;4993154;28;20108;-92
2023/08/19 09:12:07;;;;;;;11.25;9.20;;;27.40;99.90;;;;;;4995889;28;20569;-91
2023/08/19 09:14:38;;;;;;;;;;;27.30;99.90;;;;;;4994339;28;20482;-92
2023/08/19 09:17:03;;;;;;;12.48;8.20;;;27.20;99.90;;;;;;4994928;28;19910;-92
2023/08/19 09:19:29;;;;;;;13.48;8.95;;;27.10;99.90;;;;;;4992226;28;20394;-91
2023/08/19 09:21:55;;;;;;;15.10;8.68;;;27.10;99.90;;;;;;4995879;28;20030;-92
2023/08/19 09:24:21;;;;;;;15.82;10.25;;;27.00;99.90;;;;;;4993426;28;20054;-91
2023/08/19 09:26:53;;;;;;;15.45;10.15;;;27.00;99.90;;;;;;4995231;28;20021;-92
2023/08/19 09:29:19;;;;;;;10.90;8.95;;;27.10;99.90;;;;;;5003353;28;20033;-92
2023/08/19 09:31:45;;;;;;;10.35;8.57;;;27.10;99.90;;;;;;4991854;28;20133;-91
2023/08/19 09:34:14;;;;;;;9.73;8.73;;;27.20;99.90;;;;;;4993974;28;20014;-92
2023/08/19 09:36:40;;;;;;;9.88;8.13;;;27.20;99.90;;;;;;4991552;28;20029;-91
2023/08/19 09:39:06;;;;;;;10.38;8.10;;;27.30;99.90;;;;;;4994727;28;20025;-91
2023/08/19 09:41:32;;;;;;;11.23;8.27;;;27.50;99.90;;;;;;4995753;28;20506;-91
2023/08/19 09:43:57;;;;;;;15.73;9.25;;;27.70;99.90;;;;;;4977819;28;20025;-91
2023/08/19 09:46:33;;;;;;;10.95;9.95;;;27.90;99.90;;;;;;4991738;28;20033;-91
2023/08/19 09:48:59;;;;;;;10.07;9.10;;;28.10;99.90;;;;;;4995453;28;20022;-92
2023/08/19 09:51:27;;;;;;;12.07;9.43;;;28.20;99.90;;;;;;4995106;28;20065;-91
2023/08/19 09:53:53;;;;;;;13.27;9.57;;;28.30;99.90;;;;;;4978753;28;20719;-92
2023/08/19 09:56:25;;;;;;;13.45;9.50;;;28.50;99.90;;;;;;5011451;28;20064;-92
2023/08/19 09:58:52;;;;;;;9.98;8.73;;;28.60;99.90;;;;;;4995652;28;20030;-91
2023/08/19 10:01:20;;;;;;;14.45;9.18;;;28.70;99.90;;;;;;4995848;28;20022;-91
2023/08/19 10:03:47;;;;;;;10.77;9.70;;;28.70;99.90;;;;;;4980140;28;20022;-91
2023/08/19 10:06:25;;;;;;;9.98;8.65;;;28.70;99.90;;;;;;4990118;28;20037;-91
2023/08/19 10:08:59;;;;;;;14.43;9.95;;;28.60;99.90;;;;;;4984291;28;20026;-92
2023/08/19 10:11:27;;;;;;;13.73;10.23;;;28.60;99.90;;;;;;4992659;28;20030;-92
2023/08/19 10:13:55;;;;;;;13.02;10.90;;;28.60;99.90;;;;;;4995629;28;20112;-91
2023/08/19 10:16:23;;;;;;;14.18;10.55;;;28.70;99.90;;;;;;5002052;28;20025;-91
2023/08/19 10:18:51;;;;;;;13.45;11.43;;;28.90;99.90;;;;;;5001491;28;20118;-91
2023/08/19 10:21:17;;;;;;;15.10;11.45;;;28.90;99.90;;;;;;4994518;28;20022;-92
2023/08/19 10:23:45;;;;;;;14.90;12.25;;;28.80;99.90;;;;;;4989654;28;20104;-91
2023/08/19 10:26:11;;;;;;;15.98;13.38;;;28.80;99.90;;;;;;4982049;28;20018;-91
2023/08/19 10:28:37;;;;;;;19.55;13.40;;;28.70;99.90;;;;;;4994936;28;20069;-91
2023/08/19 10:31:12;;;;;;;15.15;13.60;;;28.70;99.90;;;;;;4994367;28;20061;-91
2023/08/19 10:33:44;;;;;;;17.90;14.07;;;28.70;99.90;;;;;;4992591;28;20041;-90
2023/08/19 10:36:19;;;;;;;;;;;28.80;99.90;;;;;;4996068;28;20103;-92
2023/08/19 10:38:55;;;;;;;18.52;14.25;;;28.80;99.90;;;;;;4992007;28;19909;-91
2023/08/19 10:41:27;;;;;;;20.95;17.02;;;28.90;99.90;;;;;;4993796;28;20486;-92
2023/08/19 10:43:55;;;;;;;20.52;16.48;;;28.90;99.90;;;;;;4997837;28;20065;-91
2023/08/19 10:46:26;;;;;;;18.50;15.68;;;28.80;99.90;;;;;;4998122;28;20026;-93
2023/08/19 10:48:51;;;;;;;20.58;17.10;;;28.70;99.90;;;;;;5013642;28;20116;-92
2023/08/19 10:51:18;;;;;;;20.58;18.45;;;28.80;99.90;;;;;;5002330;28;20147;-92
2023/08/19 10:54:10;;;;;;;20.17;17.20;;;28.90;99.90;;;;;;4992650;28;20037;-92
2023/08/19 10:56:36;;;;;;;23.20;18.73;;;29.10;99.90;;;;;;4990026;28;20512;-91
2023/08/19 10:59:02;;;;;;;23.48;21.25;;;29.10;99.90;;;;;;4997497;28;20061;-91
2023/08/19 11:01:32;;;;;;;26.52;23.30;;;28.90;99.90;;;;;;5001442;28;20026;-90
2023/08/19 11:04:00;;;;;;;26.60;23.88;;;28.70;99.90;;;;;;5009090;28;20026;-92
2023/08/19 11:06:33;;;;;;;26.90;24.25;;;28.60;99.90;;;;;;4997438;28;20042;-91
2023/08/19 11:08:59;;;;;;;25.80;23.17;;;28.50;99.90;;;;;;5000149;28;20022;-92
2023/08/19 11:11:25;;;;;;;25.25;22.63;;;28.30;99.90;;;;;;4995759;28;20479;-92
2023/08/19 11:13:52;;;;;;;26.40;23.63;;;28.20;99.90;;;;;;4996029;28;20028;-92
2023/08/19 11:16:18;;;;;;;24.38;21.88;;;28.20;99.90;;;;;;4996835;28;20108;-91
2023/08/19 11:18:43;;;;;;;22.63;20.27;;;28.10;99.90;;;;;;4997296;28;20022;-92
2023/08/19 11:21:09;;;;;;;18.67;16.55;;;28.10;99.90;;;;;;4997050;28;20044;-91
2023/08/19 11:23:34;;;;;;;19.52;17.42;;;28.00;99.90;;;;;;5002791;28;20113;-92
2023/08/19 11:26:00;;;;;;;19.40;17.42;;;27.90;99.90;;;;;;4990553;28;20030;-91
2023/08/19 11:28:26;;;;;;;16.38;14.68;;;27.90;99.90;;;;;;4997971;28;20049;-91
2023/08/19 11:30:51;;;;;;;16.27;14.50;;;27.90;99.90;;;;;;5005853;28;20029;-92
2023/08/19 11:33:18;;;;;;;14.85;12.18;;;27.80;99.90;;;;;;4987511;28;20026;-93
2023/08/19 11:35:45;;;;;;;11.00;9.15;;;27.80;99.90;;;;;;4987681;28;20039;-91
2023/08/19 11:38:17;;;;;;;12.40;8.05;;;27.60;99.90;;;;;;4986086;28;20023;-91
2023/08/19 11:40:43;;;;;;;10.00;7.78;;;27.50;99.90;;;;;;4985540;28;20438;-91
2023/08/19 11:43:13;;;;;;;8.07;6.63;;;27.40;99.90;;;;;;4991767;28;20083;-92
2023/08/19 11:45:40;;;;;;;7.38;5.90;;;27.20;99.90;;;;;;4997752;28;20026;-90
2023/08/19 11:48:08;;;;;;;7.07;5.88;;;27.10;99.90;;;;;;4994217;28;20056;-91
2023/08/19 11:50:37;;;;;;;7.80;5.88;;;27.00;99.90;;;;;;4996191;28;20030;-91
2023/08/19 11:53:03;;;;;;;7.93;5.20;;;26.90;99.90;;;;;;4998801;28;20049;-92
2023/08/19 11:55:28;;;;;;;7.47;6.18;;;26.80;99.90;;;;;;4985235;28;20042;-91
2023/08/19 11:57:54;;;;;;;8.07;6.38;;;26.70;99.90;;;;;;4997423;28;20029;-93
2023/08/19 12:00:20;;;;;;;9.30;6.35;;;26.70;99.90;;;;;;4997601;28;20033;-92
2023/08/19 12:02:46;;;;;;;7.53;6.18;;;26.60;99.90;;;;;;5001745;28;20417;-92
2023/08/19 12:05:21;;;;;;;8.30;6.68;;;26.70;99.90;;;;;;4997453;28;20065;-93
2023/08/19 12:07:46;;;;;;;8.98;7.15;;;26.80;99.90;;;;;;4996965;28;20026;-92
2023/08/19 12:10:12;;;;;;;11.50;7.05;;;26.70;99.90;;;;;;4991550;28;20030;-92
2023/08/19 12:12:38;;;;;;;10.52;6.93;;;26.80;99.90;;;;;;5011251;28;20073;-93
2023/08/19 12:15:05;;;;;;;11.98;8.95;;;26.90;99.90;;;;;;4991741;28;20141;-91
2023/08/19 12:17:31;;;;;;;11.18;9.48;;;26.90;99.90;;;;;;4978557;28;20023;-92
2023/08/19 12:19:57;;;;;;;17.48;12.00;;;26.80;99.90;;;;;;4992739;28;20028;-92
2023/08/19 12:22:22;;;;;;;16.95;11.95;;;26.70;99.90;;;;;;5007373;28;20073;-93
2023/08/19 12:24:48;;;;;;;14.93;11.63;;;26.70;99.90;;;;;;4989988;28;20027;-92
2023/08/19 12:27:13;;;;;;;14.95;12.48;;;26.60;99.90;;;;;;4984568;28;20027;-92
2023/08/19 12:29:40;;;;;;;16.25;11.43;;;26.50;99.90;;;;;;4996207;28;20418;-91
2023/08/19 12:32:06;;;;;;;13.38;10.20;;;26.50;99.90;;;;;;5004000;28;20034;-92